sensor_id;sensor_type;location;lat;lon;timestamp;P1;durP1;ratioP1;P2;durP2;ratioP2
66298;SDS011;53098;47.658;8.578;2023-02-28T00:01:26;8.07;;;4.13;;
66298;SDS011;53098;47.658;8.578;2023-02-28T00:03:51;9.60;;;4.57;;
66298;SDS011;53098;47.658;8.578;2023-02-28T00:06:17;8.23;;;4.00;;
66298;SDS011;53098;47.658;8.578;2023-02-28T00:08:42;8.40;;;4.23;;
66298;SDS011;53098;47.658;8.578;2023-02-28T00:11:09;7.25;;;3.90;;
66298;SDS011;53098;47.658;8.578;2023-02-28T00:13:35;7.65;;;4.13;;
66298;SDS011;53098;47.658;8.578;2023-02-28T00:16:01;7.97;;;3.88;;
66298;SDS011;53098;47.658;8.578;2023-02-28T00:18:26;7.68;;;4.45;;
66298;SDS011;53098;47.658;8.578;2023-02-28T00:20:52;11.97;;;4.57;;
66298;SDS011;53098;47.658;8.578;2023-02-28T00:23:17;10.32;;;4.60;;
66298;SDS011;53098;47.658;8.578;2023-02-28T00:25:42;7.57;;;3.90;;
66298;SDS011;53098;47.658;8.578;2023-02-28T00:28:07;6.87;;;3.90;;
66298;SDS011;53098;47.658;8.578;2023-02-28T00:30:33;9.77;;;4.93;;
66298;SDS011;53098;47.658;8.578;2023-02-28T00:32:58;10.03;;;4.10;;
66298;SDS011;53098;47.658;8.578;2023-02-28T00:35:23;7.27;;;3.90;;
66298;SDS011;53098;47.658;8.578;2023-02-28T00:37:48;7.67;;;3.73;;
66298;SDS011;53098;47.658;8.578;2023-02-28T00:40:14;10.80;;;4.57;;
66298;SDS011;53098;47.658;8.578;2023-02-28T00:42:39;9.67;;;4.67;;
66298;SDS011;53098;47.658;8.578;2023-02-28T00:45:05;9.52;;;4.00;;
66298;SDS011;53098;47.658;8.578;2023-02-28T00:47:30;7.85;;;3.85;;
66298;SDS011;53098;47.658;8.578;2023-02-28T00:49:56;8.68;;;4.10;;
66298;SDS011;53098;47.658;8.578;2023-02-28T00:52:21;8.73;;;4.40;;
66298;SDS011;53098;47.658;8.578;2023-02-28T00:54:46;10.33;;;4.00;;
66298;SDS011;53098;47.658;8.578;2023-02-28T00:57:11;8.10;;;3.97;;
66298;SDS011;53098;47.658;8.578;2023-02-28T00:59:37;9.30;;;4.10;;
66298;SDS011;53098;47.658;8.578;2023-02-28T01:02:02;7.90;;;4.00;;
66298;SDS011;53098;47.658;8.578;2023-02-28T01:04:27;8.07;;;4.07;;
66298;SDS011;53098;47.658;8.578;2023-02-28T01:06:52;8.90;;;4.63;;
66298;SDS011;53098;47.658;8.578;2023-02-28T01:09:18;9.77;;;4.70;;
66298;SDS011;53098;47.658;8.578;2023-02-28T01:11:43;7.93;;;4.27;;
66298;SDS011;53098;47.658;8.578;2023-02-28T01:14:08;9.83;;;4.77;;
66298;SDS011;53098;47.658;8.578;2023-02-28T01:16:33;8.43;;;4.43;;
66298;SDS011;53098;47.658;8.578;2023-02-28T01:18:59;11.07;;;4.87;;
66298;SDS011;53098;47.658;8.578;2023-02-28T01:21:24;10.07;;;4.97;;
66298;SDS011;53098;47.658;8.578;2023-02-28T01:23:49;8.87;;;4.07;;
66298;SDS011;53098;47.658;8.578;2023-02-28T01:26:19;9.10;;;4.57;;
66298;SDS011;53098;47.658;8.578;2023-02-28T01:28:44;8.82;;;4.65;;
66298;SDS011;53098;47.658;8.578;2023-02-28T01:31:10;10.52;;;5.53;;
66298;SDS011;53098;47.658;8.578;2023-02-28T01:33:35;9.10;;;4.68;;
66298;SDS011;53098;47.658;8.578;2023-02-28T01:36:02;10.15;;;4.75;;
66298;SDS011;53098;47.658;8.578;2023-02-28T01:38:28;8.82;;;4.63;;
66298;SDS011;53098;47.658;8.578;2023-02-28T01:40:53;10.25;;;5.03;;
66298;SDS011;53098;47.658;8.578;2023-02-28T01:43:29;8.77;;;4.53;;
66298;SDS011;53098;47.658;8.578;2023-02-28T01:45:55;9.05;;;4.95;;
66298;SDS011;53098;47.658;8.578;2023-02-28T01:48:23;8.38;;;4.50;;
66298;SDS011;53098;47.658;8.578;2023-02-28T01:50:49;9.18;;;4.55;;
66298;SDS011;53098;47.658;8.578;2023-02-28T01:53:16;9.57;;;4.80;;
66298;SDS011;53098;47.658;8.578;2023-02-28T01:55:44;7.80;;;4.10;;
66298;SDS011;53098;47.658;8.578;2023-02-28T01:58:10;8.93;;;4.20;;
66298;SDS011;53098;47.658;8.578;2023-02-28T02:00:35;8.50;;;4.25;;
66298;SDS011;53098;47.658;8.578;2023-02-28T02:03:05;8.73;;;4.43;;
66298;SDS011;53098;47.658;8.578;2023-02-28T02:05:31;9.43;;;4.07;;
66298;SDS011;53098;47.658;8.578;2023-02-28T02:08:06;9.45;;;4.55;;
66298;SDS011;53098;47.658;8.578;2023-02-28T02:15:29;7.72;;;4.28;;
66298;SDS011;53098;47.658;8.578;2023-02-28T02:17:57;7.50;;;4.18;;
66298;SDS011;53098;47.658;8.578;2023-02-28T02:33:16;10.02;;;4.13;;
66298;SDS011;53098;47.658;8.578;2023-02-28T02:40:58;8.65;;;3.92;;
66298;SDS011;53098;47.658;8.578;2023-02-28T02:43:29;7.28;;;3.60;;
66298;SDS011;53098;47.658;8.578;2023-02-28T02:45:56;8.85;;;3.88;;
66298;SDS011;53098;47.658;8.578;2023-02-28T02:48:24;7.32;;;3.63;;
66298;SDS011;53098;47.658;8.578;2023-02-28T02:50:53;9.05;;;4.28;;
66298;SDS011;53098;47.658;8.578;2023-02-28T02:53:20;10.70;;;4.15;;
66298;SDS011;53098;47.658;8.578;2023-02-28T02:55:47;8.32;;;4.05;;
66298;SDS011;53098;47.658;8.578;2023-02-28T02:58:14;9.40;;;3.75;;
66298;SDS011;53098;47.658;8.578;2023-02-28T03:00:51;9.73;;;4.13;;
66298;SDS011;53098;47.658;8.578;2023-02-28T03:03:18;9.65;;;4.40;;
66298;SDS011;53098;47.658;8.578;2023-02-28T03:05:50;7.72;;;3.72;;
66298;SDS011;53098;47.658;8.578;2023-02-28T03:08:15;9.13;;;4.00;;
66298;SDS011;53098;47.658;8.578;2023-02-28T03:10:42;9.52;;;4.00;;
66298;SDS011;53098;47.658;8.578;2023-02-28T03:16:08;8.40;;;3.70;;
66298;SDS011;53098;47.658;8.578;2023-02-28T03:23:48;7.80;;;3.65;;
66298;SDS011;53098;47.658;8.578;2023-02-28T03:26:20;9.68;;;3.60;;
66298;SDS011;53098;47.658;8.578;2023-02-28T03:31:16;9.37;;;3.77;;
66298;SDS011;53098;47.658;8.578;2023-02-28T03:34:00;8.18;;;3.83;;
66298;SDS011;53098;47.658;8.578;2023-02-28T03:36:27;6.68;;;3.47;;
66298;SDS011;53098;47.658;8.578;2023-02-28T03:38:56;9.07;;;3.72;;
66298;SDS011;53098;47.658;8.578;2023-02-28T03:41:23;7.32;;;3.42;;
66298;SDS011;53098;47.658;8.578;2023-02-28T03:43:50;9.98;;;4.50;;
66298;SDS011;53098;47.658;8.578;2023-02-28T03:46:18;7.97;;;4.00;;
66298;SDS011;53098;47.658;8.578;2023-02-28T03:48:45;9.77;;;4.30;;
66298;SDS011;53098;47.658;8.578;2023-02-28T03:51:15;9.10;;;3.80;;
66298;SDS011;53098;47.658;8.578;2023-02-28T03:53:42;8.65;;;4.13;;
66298;SDS011;53098;47.658;8.578;2023-02-28T03:56:14;8.13;;;4.50;;
66298;SDS011;53098;47.658;8.578;2023-02-28T04:01:15;8.27;;;4.07;;
66298;SDS011;53098;47.658;8.578;2023-02-28T04:03:41;8.25;;;3.85;;
66298;SDS011;53098;47.658;8.578;2023-02-28T04:06:07;8.20;;;4.20;;
66298;SDS011;53098;47.658;8.578;2023-02-28T04:08:33;8.77;;;4.32;;
66298;SDS011;53098;47.658;8.578;2023-02-28T04:11:03;10.90;;;4.22;;
66298;SDS011;53098;47.658;8.578;2023-02-28T04:13:29;8.02;;;3.97;;
66298;SDS011;53098;47.658;8.578;2023-02-28T04:15:54;7.93;;;3.40;;
66298;SDS011;53098;47.658;8.578;2023-02-28T04:18:20;8.30;;;3.43;;
66298;SDS011;53098;47.658;8.578;2023-02-28T04:20:45;7.07;;;4.07;;
66298;SDS011;53098;47.658;8.578;2023-02-28T04:23:10;8.63;;;4.47;;
66298;SDS011;53098;47.658;8.578;2023-02-28T04:25:35;8.53;;;4.53;;
66298;SDS011;53098;47.658;8.578;2023-02-28T04:28:01;6.33;;;3.50;;
66298;SDS011;53098;47.658;8.578;2023-02-28T04:30:26;8.60;;;4.97;;
66298;SDS011;53098;47.658;8.578;2023-02-28T04:32:51;8.17;;;4.17;;
66298;SDS011;53098;47.658;8.578;2023-02-28T04:35:16;9.17;;;3.83;;
66298;SDS011;53098;47.658;8.578;2023-02-28T04:37:42;7.27;;;4.07;;
66298;SDS011;53098;47.658;8.578;2023-02-28T04:40:07;7.53;;;3.80;;
66298;SDS011;53098;47.658;8.578;2023-02-28T04:42:33;9.88;;;4.10;;
66298;SDS011;53098;47.658;8.578;2023-02-28T04:44:58;9.35;;;4.10;;
66298;SDS011;53098;47.658;8.578;2023-02-28T04:47:23;7.47;;;3.73;;
66298;SDS011;53098;47.658;8.578;2023-02-28T04:49:48;9.17;;;4.23;;
66298;SDS011;53098;47.658;8.578;2023-02-28T04:52:14;9.87;;;4.13;;
66298;SDS011;53098;47.658;8.578;2023-02-28T04:54:39;8.77;;;3.80;;
66298;SDS011;53098;47.658;8.578;2023-02-28T04:57:04;6.53;;;3.40;;
66298;SDS011;53098;47.658;8.578;2023-02-28T04:59:29;8.50;;;3.77;;
66298;SDS011;53098;47.658;8.578;2023-02-28T05:01:55;7.40;;;3.83;;
66298;SDS011;53098;47.658;8.578;2023-02-28T05:04:21;8.15;;;4.55;;
66298;SDS011;53098;47.658;8.578;2023-02-28T05:06:46;8.57;;;4.33;;
66298;SDS011;53098;47.658;8.578;2023-02-28T05:09:11;9.32;;;3.83;;
66298;SDS011;53098;47.658;8.578;2023-02-28T05:11:37;9.87;;;4.50;;
66298;SDS011;53098;47.658;8.578;2023-02-28T05:14:03;8.23;;;4.07;;
66298;SDS011;53098;47.658;8.578;2023-02-28T05:16:29;9.20;;;4.25;;
66298;SDS011;53098;47.658;8.578;2023-02-28T05:18:54;7.82;;;3.83;;
66298;SDS011;53098;47.658;8.578;2023-02-28T05:21:22;10.20;;;4.03;;
66298;SDS011;53098;47.658;8.578;2023-02-28T05:23:48;9.00;;;4.70;;
66298;SDS011;53098;47.658;8.578;2023-02-28T05:26:13;8.97;;;4.50;;
66298;SDS011;53098;47.658;8.578;2023-02-28T05:28:38;8.40;;;4.37;;
66298;SDS011;53098;47.658;8.578;2023-02-28T05:31:03;7.93;;;3.97;;
66298;SDS011;53098;47.658;8.578;2023-02-28T05:33:29;8.23;;;4.18;;
66298;SDS011;53098;47.658;8.578;2023-02-28T05:35:54;11.67;;;4.50;;
66298;SDS011;53098;47.658;8.578;2023-02-28T05:38:19;9.40;;;4.57;;
66298;SDS011;53098;47.658;8.578;2023-02-28T05:40:45;8.53;;;4.57;;
66298;SDS011;53098;47.658;8.578;2023-02-28T05:43:10;7.50;;;4.03;;
66298;SDS011;53098;47.658;8.578;2023-02-28T05:45:35;8.20;;;3.83;;
66298;SDS011;53098;47.658;8.578;2023-02-28T05:48:01;9.70;;;4.70;;
66298;SDS011;53098;47.658;8.578;2023-02-28T05:50:26;7.67;;;4.20;;
66298;SDS011;53098;47.658;8.578;2023-02-28T05:52:51;10.43;;;5.00;;
66298;SDS011;53098;47.658;8.578;2023-02-28T05:55:16;9.20;;;4.33;;
66298;SDS011;53098;47.658;8.578;2023-02-28T05:57:42;8.18;;;4.15;;
66298;SDS011;53098;47.658;8.578;2023-02-28T06:00:07;7.97;;;4.37;;
66298;SDS011;53098;47.658;8.578;2023-02-28T06:02:33;8.88;;;4.95;;
66298;SDS011;53098;47.658;8.578;2023-02-28T06:04:58;11.20;;;4.73;;
66298;SDS011;53098;47.658;8.578;2023-02-28T06:07:23;7.60;;;4.27;;
66298;SDS011;53098;47.658;8.578;2023-02-28T06:09:49;8.33;;;4.40;;
66298;SDS011;53098;47.658;8.578;2023-02-28T06:12:14;8.40;;;4.43;;
66298;SDS011;53098;47.658;8.578;2023-02-28T06:14:39;8.97;;;4.27;;
66298;SDS011;53098;47.658;8.578;2023-02-28T06:17:04;9.67;;;4.80;;
66298;SDS011;53098;47.658;8.578;2023-02-28T06:19:30;9.33;;;4.80;;
66298;SDS011;53098;47.658;8.578;2023-02-28T06:21:56;8.75;;;4.80;;
66298;SDS011;53098;47.658;8.578;2023-02-28T06:24:21;10.95;;;4.70;;
66298;SDS011;53098;47.658;8.578;2023-02-28T06:26:47;9.55;;;4.93;;
66298;SDS011;53098;47.658;8.578;2023-02-28T06:29:12;9.05;;;4.97;;
66298;SDS011;53098;47.658;8.578;2023-02-28T06:31:37;8.73;;;4.13;;
66298;SDS011;53098;47.658;8.578;2023-02-28T06:34:03;10.63;;;4.47;;
66298;SDS011;53098;47.658;8.578;2023-02-28T06:36:28;8.90;;;4.40;;
66298;SDS011;53098;47.658;8.578;2023-02-28T06:38:53;10.73;;;4.80;;
66298;SDS011;53098;47.658;8.578;2023-02-28T06:41:18;10.47;;;4.50;;
66298;SDS011;53098;47.658;8.578;2023-02-28T06:43:44;10.83;;;4.73;;
66298;SDS011;53098;47.658;8.578;2023-02-28T06:46:11;9.67;;;4.60;;
66298;SDS011;53098;47.658;8.578;2023-02-28T06:48:37;8.88;;;4.82;;
66298;SDS011;53098;47.658;8.578;2023-02-28T06:51:09;12.50;;;5.43;;
66298;SDS011;53098;47.658;8.578;2023-02-28T06:53:35;9.00;;;4.50;;
66298;SDS011;53098;47.658;8.578;2023-02-28T06:56:08;14.20;;;5.35;;
66298;SDS011;53098;47.658;8.578;2023-02-28T06:58:34;9.73;;;4.80;;
66298;SDS011;53098;47.658;8.578;2023-02-28T07:00:59;10.13;;;4.78;;
66298;SDS011;53098;47.658;8.578;2023-02-28T07:03:24;9.73;;;4.60;;
66298;SDS011;53098;47.658;8.578;2023-02-28T07:05:50;9.40;;;4.47;;
66298;SDS011;53098;47.658;8.578;2023-02-28T07:08:15;10.23;;;4.73;;
66298;SDS011;53098;47.658;8.578;2023-02-28T07:10:40;10.93;;;4.90;;
66298;SDS011;53098;47.658;8.578;2023-02-28T07:13:06;9.45;;;5.40;;
66298;SDS011;53098;47.658;8.578;2023-02-28T07:15:32;10.68;;;5.45;;
66298;SDS011;53098;47.658;8.578;2023-02-28T07:17:57;9.70;;;4.70;;
66298;SDS011;53098;47.658;8.578;2023-02-28T07:20:23;10.40;;;4.75;;
66298;SDS011;53098;47.658;8.578;2023-02-28T07:22:49;9.90;;;5.13;;
66298;SDS011;53098;47.658;8.578;2023-02-28T07:25:14;8.77;;;4.78;;
66298;SDS011;53098;47.658;8.578;2023-02-28T07:27:39;11.23;;;4.93;;
66298;SDS011;53098;47.658;8.578;2023-02-28T07:30:05;12.57;;;4.73;;
66298;SDS011;53098;47.658;8.578;2023-02-28T07:32:30;10.90;;;4.90;;
66298;SDS011;53098;47.658;8.578;2023-02-28T07:34:55;10.03;;;5.27;;
66298;SDS011;53098;47.658;8.578;2023-02-28T07:37:20;9.33;;;4.97;;
66298;SDS011;53098;47.658;8.578;2023-02-28T07:39:46;9.03;;;4.63;;
66298;SDS011;53098;47.658;8.578;2023-02-28T07:42:11;8.07;;;4.67;;
66298;SDS011;53098;47.658;8.578;2023-02-28T07:44:36;10.73;;;5.03;;
66298;SDS011;53098;47.658;8.578;2023-02-28T07:47:02;9.35;;;5.15;;
66298;SDS011;53098;47.658;8.578;2023-02-28T07:49:27;10.47;;;4.70;;
66298;SDS011;53098;47.658;8.578;2023-02-28T07:51:52;9.43;;;4.83;;
66298;SDS011;53098;47.658;8.578;2023-02-28T07:54:17;10.27;;;4.90;;
66298;SDS011;53098;47.658;8.578;2023-02-28T07:56:43;10.33;;;5.50;;
66298;SDS011;53098;47.658;8.578;2023-02-28T07:59:08;9.47;;;5.20;;
66298;SDS011;53098;47.658;8.578;2023-02-28T08:01:33;9.00;;;4.67;;
66298;SDS011;53098;47.658;8.578;2023-02-28T08:03:58;10.27;;;5.80;;
66298;SDS011;53098;47.658;8.578;2023-02-28T08:06:24;9.63;;;5.27;;
66298;SDS011;53098;47.658;8.578;2023-02-28T08:08:50;10.68;;;5.18;;
66298;SDS011;53098;47.658;8.578;2023-02-28T08:11:15;10.33;;;5.83;;
66298;SDS011;53098;47.658;8.578;2023-02-28T08:13:41;10.10;;;5.53;;
66298;SDS011;53098;47.658;8.578;2023-02-28T08:16:06;9.55;;;5.22;;
66298;SDS011;53098;47.658;8.578;2023-02-28T08:18:32;10.27;;;5.27;;
66298;SDS011;53098;47.658;8.578;2023-02-28T08:20:57;12.52;;;6.57;;
66298;SDS011;53098;47.658;8.578;2023-02-28T08:23:22;10.37;;;4.97;;
66298;SDS011;53098;47.658;8.578;2023-02-28T08:25:54;9.70;;;5.37;;
66298;SDS011;53098;47.658;8.578;2023-02-28T08:28:20;9.82;;;5.32;;
66298;SDS011;53098;47.658;8.578;2023-02-28T08:30:45;10.90;;;5.93;;
66298;SDS011;53098;47.658;8.578;2023-02-28T08:33:10;10.50;;;6.03;;
66298;SDS011;53098;47.658;8.578;2023-02-28T08:35:36;9.27;;;5.70;;
66298;SDS011;53098;47.658;8.578;2023-02-28T08:38:01;9.38;;;5.65;;
66298;SDS011;53098;47.658;8.578;2023-02-28T08:40:26;10.73;;;5.70;;
66298;SDS011;53098;47.658;8.578;2023-02-28T08:42:52;9.60;;;5.75;;
66298;SDS011;53098;47.658;8.578;2023-02-28T08:45:17;11.83;;;5.70;;
66298;SDS011;53098;47.658;8.578;2023-02-28T08:47:42;11.73;;;6.03;;
66298;SDS011;53098;47.658;8.578;2023-02-28T08:50:08;9.52;;;5.55;;
66298;SDS011;53098;47.658;8.578;2023-02-28T08:52:33;11.38;;;5.85;;
66298;SDS011;53098;47.658;8.578;2023-02-28T08:54:58;10.63;;;6.03;;
66298;SDS011;53098;47.658;8.578;2023-02-28T08:57:24;9.43;;;5.20;;
66298;SDS011;53098;47.658;8.578;2023-02-28T08:59:49;10.40;;;5.63;;
66298;SDS011;53098;47.658;8.578;2023-02-28T09:02:15;10.10;;;5.63;;
66298;SDS011;53098;47.658;8.578;2023-02-28T09:04:40;10.33;;;5.13;;
66298;SDS011;53098;47.658;8.578;2023-02-28T09:07:06;10.88;;;6.25;;
66298;SDS011;53098;47.658;8.578;2023-02-28T09:09:31;10.07;;;5.50;;
66298;SDS011;53098;47.658;8.578;2023-02-28T09:11:56;11.93;;;5.93;;
66298;SDS011;53098;47.658;8.578;2023-02-28T09:14:22;11.65;;;6.30;;
66298;SDS011;53098;47.658;8.578;2023-02-28T09:16:47;12.95;;;6.53;;
66298;SDS011;53098;47.658;8.578;2023-02-28T09:19:12;12.07;;;6.73;;
66298;SDS011;53098;47.658;8.578;2023-02-28T09:21:38;12.13;;;6.13;;
66298;SDS011;53098;47.658;8.578;2023-02-28T09:24:03;10.77;;;6.17;;
66298;SDS011;53098;47.658;8.578;2023-02-28T09:26:28;9.95;;;5.85;;
66298;SDS011;53098;47.658;8.578;2023-02-28T09:28:54;9.87;;;6.00;;
66298;SDS011;53098;47.658;8.578;2023-02-28T09:31:21;11.07;;;5.88;;
66298;SDS011;53098;47.658;8.578;2023-02-28T09:33:47;11.25;;;5.90;;
66298;SDS011;53098;47.658;8.578;2023-02-28T09:36:13;10.25;;;6.22;;
66298;SDS011;53098;47.658;8.578;2023-02-28T09:38:38;11.48;;;6.05;;
66298;SDS011;53098;47.658;8.578;2023-02-28T09:41:08;11.00;;;6.47;;
66298;SDS011;53098;47.658;8.578;2023-02-28T09:46:02;11.60;;;5.68;;
66298;SDS011;53098;47.658;8.578;2023-02-28T09:48:35;10.65;;;6.07;;
66298;SDS011;53098;47.658;8.578;2023-02-28T09:51:03;11.88;;;6.43;;
66298;SDS011;53098;47.658;8.578;2023-02-28T09:53:30;10.18;;;5.90;;
66298;SDS011;53098;47.658;8.578;2023-02-28T09:55:59;12.90;;;6.38;;
66298;SDS011;53098;47.658;8.578;2023-02-28T09:58:28;10.32;;;5.75;;
66298;SDS011;53098;47.658;8.578;2023-02-28T10:00:59;12.88;;;6.15;;
66298;SDS011;53098;47.658;8.578;2023-02-28T10:03:39;10.90;;;6.45;;
66298;SDS011;53098;47.658;8.578;2023-02-28T10:06:11;11.52;;;6.13;;
66298;SDS011;53098;47.658;8.578;2023-02-28T10:09:24;11.77;;;6.53;;
66298;SDS011;53098;47.658;8.578;2023-02-28T10:11:24;9.90;;;5.38;;
66298;SDS011;53098;47.658;8.578;2023-02-28T10:16:35;11.13;;;6.18;;
66298;SDS011;53098;47.658;8.578;2023-02-28T10:21:55;11.52;;;6.45;;
66298;SDS011;53098;47.658;8.578;2023-02-28T10:26:47;13.63;;;6.30;;
66298;SDS011;53098;47.658;8.578;2023-02-28T10:29:13;12.05;;;6.18;;
66298;SDS011;53098;47.658;8.578;2023-02-28T10:31:38;12.03;;;6.30;;
66298;SDS011;53098;47.658;8.578;2023-02-28T10:34:04;10.82;;;5.80;;
66298;SDS011;53098;47.658;8.578;2023-02-28T10:36:29;12.13;;;5.97;;
66298;SDS011;53098;47.658;8.578;2023-02-28T10:38:54;12.43;;;6.37;;
66298;SDS011;53098;47.658;8.578;2023-02-28T10:41:27;11.70;;;7.20;;
66298;SDS011;53098;47.658;8.578;2023-02-28T10:43:53;12.23;;;7.03;;
66298;SDS011;53098;47.658;8.578;2023-02-28T10:46:36;11.98;;;6.50;;
66298;SDS011;53098;47.658;8.578;2023-02-28T10:49:05;11.43;;;6.47;;
66298;SDS011;53098;47.658;8.578;2023-02-28T10:51:35;12.55;;;6.78;;
66298;SDS011;53098;47.658;8.578;2023-02-28T10:54:01;12.32;;;7.25;;
66298;SDS011;53098;47.658;8.578;2023-02-28T10:56:28;10.70;;;6.28;;
66298;SDS011;53098;47.658;8.578;2023-02-28T11:01:46;10.40;;;6.38;;
66298;SDS011;53098;47.658;8.578;2023-02-28T11:04:33;13.23;;;6.55;;
66298;SDS011;53098;47.658;8.578;2023-02-28T11:09:52;12.00;;;6.57;;
66298;SDS011;53098;47.658;8.578;2023-02-28T11:12:22;11.73;;;6.60;;
66298;SDS011;53098;47.658;8.578;2023-02-28T11:14:52;11.00;;;6.55;;
66298;SDS011;53098;47.658;8.578;2023-02-28T11:17:24;12.65;;;7.05;;
66298;SDS011;53098;47.658;8.578;2023-02-28T11:19:55;14.32;;;6.70;;
66298;SDS011;53098;47.658;8.578;2023-02-28T11:22:22;12.85;;;7.00;;
66298;SDS011;53098;47.658;8.578;2023-02-28T11:24:49;12.30;;;7.13;;
66298;SDS011;53098;47.658;8.578;2023-02-28T11:29:57;13.52;;;8.20;;
66298;SDS011;53098;47.658;8.578;2023-02-28T11:32:27;13.27;;;8.00;;
66298;SDS011;53098;47.658;8.578;2023-02-28T11:37:36;14.52;;;7.97;;
66298;SDS011;53098;47.658;8.578;2023-02-28T11:40:02;13.82;;;7.85;;
66298;SDS011;53098;47.658;8.578;2023-02-28T12:02:35;14.57;;;7.40;;
66298;SDS011;53098;47.658;8.578;2023-02-28T12:10:06;12.82;;;7.20;;
66298;SDS011;53098;47.658;8.578;2023-02-28T12:17:47;13.15;;;7.55;;
66298;SDS011;53098;47.658;8.578;2023-02-28T12:28:20;14.45;;;8.82;;
66298;SDS011;53098;47.658;8.578;2023-02-28T12:30:51;14.13;;;7.97;;
66298;SDS011;53098;47.658;8.578;2023-02-28T12:33:19;16.30;;;8.48;;
66298;SDS011;53098;47.658;8.578;2023-02-28T12:35:51;13.80;;;7.70;;
66298;SDS011;53098;47.658;8.578;2023-02-28T12:38:36;14.95;;;8.00;;
66298;SDS011;53098;47.658;8.578;2023-02-28T12:41:06;13.85;;;7.70;;
66298;SDS011;53098;47.658;8.578;2023-02-28T12:43:37;13.10;;;7.78;;
66298;SDS011;53098;47.658;8.578;2023-02-28T12:46:24;13.38;;;7.85;;
66298;SDS011;53098;47.658;8.578;2023-02-28T12:48:52;14.07;;;8.35;;
66298;SDS011;53098;47.658;8.578;2023-02-28T12:51:18;14.13;;;8.00;;
66298;SDS011;53098;47.658;8.578;2023-02-28T12:53:48;13.85;;;8.48;;
66298;SDS011;53098;47.658;8.578;2023-02-28T12:58:44;15.25;;;8.65;;
66298;SDS011;53098;47.658;8.578;2023-02-28T13:11:23;15.00;;;8.70;;
66298;SDS011;53098;47.658;8.578;2023-02-28T13:13:48;16.23;;;8.55;;
66298;SDS011;53098;47.658;8.578;2023-02-28T13:16:21;14.07;;;8.30;;
66298;SDS011;53098;47.658;8.578;2023-02-28T13:18:47;13.80;;;7.60;;
66298;SDS011;53098;47.658;8.578;2023-02-28T13:21:23;14.23;;;8.18;;
66298;SDS011;53098;47.658;8.578;2023-02-28T13:26:17;13.43;;;8.10;;
66298;SDS011;53098;47.658;8.578;2023-02-28T13:31:14;14.57;;;8.95;;
66298;SDS011;53098;47.658;8.578;2023-02-28T13:49:32;16.23;;;9.63;;
66298;SDS011;53098;47.658;8.578;2023-02-28T13:54:42;14.93;;;9.25;;
66298;SDS011;53098;47.658;8.578;2023-02-28T14:00:07;13.38;;;8.00;;
66298;SDS011;53098;47.658;8.578;2023-02-28T14:05:19;16.90;;;9.77;;
66298;SDS011;53098;47.658;8.578;2023-02-28T14:07:49;17.40;;;9.30;;
66298;SDS011;53098;47.658;8.578;2023-02-28T14:10:36;14.40;;;8.38;;
66298;SDS011;53098;47.658;8.578;2023-02-28T14:18:21;14.60;;;8.38;;
66298;SDS011;53098;47.658;8.578;2023-02-28T14:20:47;16.17;;;9.55;;
66298;SDS011;53098;47.658;8.578;2023-02-28T14:24:01;15.63;;;9.30;;
66298;SDS011;53098;47.658;8.578;2023-02-28T14:28:34;14.47;;;8.50;;
66298;SDS011;53098;47.658;8.578;2023-02-28T14:31:09;16.73;;;9.32;;
66298;SDS011;53098;47.658;8.578;2023-02-28T14:33:47;16.17;;;9.38;;
66298;SDS011;53098;47.658;8.578;2023-02-28T14:36:26;17.15;;;9.52;;
66298;SDS011;53098;47.658;8.578;2023-02-28T14:38:53;18.63;;;9.98;;
66298;SDS011;53098;47.658;8.578;2023-02-28T14:41:41;14.73;;;8.77;;
66298;SDS011;53098;47.658;8.578;2023-02-28T14:44:24;17.30;;;8.73;;
66298;SDS011;53098;47.658;8.578;2023-02-28T14:46:54;22.13;;;10.18;;
66298;SDS011;53098;47.658;8.578;2023-02-28T14:49:21;18.10;;;9.57;;
66298;SDS011;53098;47.658;8.578;2023-02-28T14:51:48;16.17;;;9.52;;
66298;SDS011;53098;47.658;8.578;2023-02-28T14:54:14;16.58;;;8.32;;
66298;SDS011;53098;47.658;8.578;2023-02-28T14:56:41;14.77;;;9.52;;
66298;SDS011;53098;47.658;8.578;2023-02-28T14:59:21;17.60;;;9.47;;
66298;SDS011;53098;47.658;8.578;2023-02-28T15:01:48;16.55;;;8.98;;
66298;SDS011;53098;47.658;8.578;2023-02-28T15:04:25;15.50;;;9.20;;
66298;SDS011;53098;47.658;8.578;2023-02-28T15:07:10;14.82;;;8.52;;
66298;SDS011;53098;47.658;8.578;2023-02-28T15:09:35;16.80;;;9.13;;
66298;SDS011;53098;47.658;8.578;2023-02-28T15:12:01;15.80;;;8.73;;
66298;SDS011;53098;47.658;8.578;2023-02-28T15:14:26;16.48;;;9.85;;
66298;SDS011;53098;47.658;8.578;2023-02-28T15:16:52;15.50;;;9.10;;
66298;SDS011;53098;47.658;8.578;2023-02-28T15:19:31;16.65;;;9.38;;
66298;SDS011;53098;47.658;8.578;2023-02-28T15:22:08;17.75;;;9.85;;
66298;SDS011;53098;47.658;8.578;2023-02-28T15:24:40;17.27;;;9.70;;
66298;SDS011;53098;47.658;8.578;2023-02-28T15:27:07;14.55;;;8.57;;
66298;SDS011;53098;47.658;8.578;2023-02-28T15:29:41;19.45;;;10.43;;
66298;SDS011;53098;47.658;8.578;2023-02-28T15:32:19;13.60;;;8.65;;
66298;SDS011;53098;47.658;8.578;2023-02-28T15:39:52;16.38;;;8.82;;
66298;SDS011;53098;47.658;8.578;2023-02-28T15:42:18;15.15;;;8.65;;
66298;SDS011;53098;47.658;8.578;2023-02-28T15:44:44;17.20;;;10.23;;
66298;SDS011;53098;47.658;8.578;2023-02-28T15:49:59;17.42;;;9.30;;
66298;SDS011;53098;47.658;8.578;2023-02-28T15:54:50;15.80;;;9.97;;
66298;SDS011;53098;47.658;8.578;2023-02-28T15:57:24;17.67;;;10.20;;
66298;SDS011;53098;47.658;8.578;2023-02-28T15:59:57;17.00;;;10.23;;
66298;SDS011;53098;47.658;8.578;2023-02-28T16:02:44;19.63;;;10.07;;
66298;SDS011;53098;47.658;8.578;2023-02-28T16:07:35;17.83;;;10.13;;
66298;SDS011;53098;47.658;8.578;2023-02-28T16:10:00;16.67;;;9.50;;
66298;SDS011;53098;47.658;8.578;2023-02-28T16:12:27;16.00;;;9.00;;
66298;SDS011;53098;47.658;8.578;2023-02-28T16:14:53;15.07;;;8.95;;
66298;SDS011;53098;47.658;8.578;2023-02-28T16:17:20;17.05;;;9.80;;
66298;SDS011;53098;47.658;8.578;2023-02-28T16:19:46;15.88;;;9.75;;
66298;SDS011;53098;47.658;8.578;2023-02-28T16:22:11;18.87;;;12.13;;
66298;SDS011;53098;47.658;8.578;2023-02-28T16:24:36;17.13;;;9.80;;
66298;SDS011;53098;47.658;8.578;2023-02-28T16:27:02;17.93;;;11.00;;
66298;SDS011;53098;47.658;8.578;2023-02-28T16:29:29;14.63;;;9.07;;
66298;SDS011;53098;47.658;8.578;2023-02-28T16:31:55;17.92;;;10.18;;
66298;SDS011;53098;47.658;8.578;2023-02-28T16:34:20;17.02;;;9.65;;
66298;SDS011;53098;47.658;8.578;2023-02-28T16:36:46;15.80;;;9.85;;
66298;SDS011;53098;47.658;8.578;2023-02-28T16:39:12;16.38;;;10.20;;
66298;SDS011;53098;47.658;8.578;2023-02-28T16:41:37;19.73;;;10.43;;
66298;SDS011;53098;47.658;8.578;2023-02-28T16:44:02;16.10;;;9.63;;
66298;SDS011;53098;47.658;8.578;2023-02-28T16:46:34;16.02;;;9.32;;
66298;SDS011;53098;47.658;8.578;2023-02-28T16:49:00;16.95;;;9.60;;
66298;SDS011;53098;47.658;8.578;2023-02-28T16:51:26;16.53;;;9.57;;
66298;SDS011;53098;47.658;8.578;2023-02-28T16:53:51;20.25;;;10.77;;
66298;SDS011;53098;47.658;8.578;2023-02-28T16:56:25;18.43;;;9.73;;
66298;SDS011;53098;47.658;8.578;2023-02-28T16:58:51;17.42;;;9.63;;
66298;SDS011;53098;47.658;8.578;2023-02-28T17:01:17;16.27;;;9.88;;
66298;SDS011;53098;47.658;8.578;2023-02-28T17:03:43;18.60;;;10.02;;
66298;SDS011;53098;47.658;8.578;2023-02-28T17:06:22;20.13;;;10.67;;
66298;SDS011;53098;47.658;8.578;2023-02-28T17:08:48;16.00;;;9.82;;
66298;SDS011;53098;47.658;8.578;2023-02-28T17:11:13;18.35;;;10.00;;
66298;SDS011;53098;47.658;8.578;2023-02-28T17:13:38;15.33;;;9.40;;
66298;SDS011;53098;47.658;8.578;2023-02-28T17:16:04;17.33;;;10.48;;
66298;SDS011;53098;47.658;8.578;2023-02-28T17:18:29;16.42;;;10.10;;
66298;SDS011;53098;47.658;8.578;2023-02-28T17:20:54;20.43;;;10.70;;